Aboy Karlie — 9HA4230 — position and weather

sailwx.info

Track history (hours):
 
Tides and Currents Weather Stations Pressure Air Temp Water Temp Dewpoint Dewpoint Depression Visibility Wind Speed Wind Dir Waves Ship Positions

Aboy Karlie

Last reported at 2018-Aug-19 22:30 UTC. Time now 2018-Aug-19 22:53 UTC.
Position N 67°28' E 013°16'.

Length 300 m; draft 18.6 m.

Type: Cargo ship. MMSI: 249400000.

Date/timePositionNaut miles runAvg speedWind from/ knotsBaromVisibWave heightAir tempDewpointWater temp
2018-Aug-19 22:30N 67°28' E 013°16'4 8.3
2018-Aug-19 22:00N 67°31' E 013°23'4 8.4
2018-Aug-19 21:30N 67°34' E 013°31'4 8.7
2018-Aug-19 21:00N 67°37' E 013°39'4 8.7
2018-Aug-19 20:30N 67°40' E 013°47'4 8.5
2018-Aug-19 20:00N 67°43' E 013°55'4 8.4
2018-Aug-19 19:30N 67°46' E 014°02'4 8.4
2018-Aug-19 18:59N 67°50' E 014°10'4 8.4
2018-Aug-19 18:29N 67°53' E 014°17'4 8.4
2018-Aug-19 18:00N 67°56' E 014°25'5 8.9
2018-Aug-19 17:30N 67°59' E 014°34'4 8.8
2018-Aug-19 17:00N 68°01' E 014°43'4 8.4
2018-Aug-19 16:29N 68°04' E 014°52'4 8.6
2018-Aug-19 16:00N 68°07' E 015°01'4 9.0
2018-Aug-19 15:30N 68°10' E 015°10'4 8.9
2018-Aug-19 15:00N 68°12' E 015°20'5 9.1
2018-Aug-19 14:30N 68°13' E 015°32'4 8.7
2018-Aug-19 14:00N 68°15' E 015°43'5 9.2
2018-Aug-19 13:30N 68°18' E 015°52'5 9.0
2018-Aug-19 13:00N 68°21' E 016°00'4 8.1
2018-Aug-19 12:30N 68°23' E 016°10'510.1
2018-Aug-19 12:00N 68°24' E 016°23'510.4
2018-Aug-19 11:30N 68°26' E 016°37'611.3
2018-Aug-19 10:59N 68°26' E 016°52'611.6
2018-Aug-19 10:30N 68°26' E 017°08'5 9.6
2018-Aug-19 10:00N 68°26' E 017°21'1 1.9
2018-Aug-19 09:29N 68°26' E 017°23'0 0.0
2018-Aug-19 08:58N 68°26' E 017°23'0 0.0
2018-Aug-19 08:29N 68°26' E 017°23'0 0.0
2018-Aug-19 07:59N 68°26' E 017°23'0 0.0
2018-Aug-19 07:28N 68°26' E 017°23'0 0.0
2018-Aug-19 06:58N 68°26' E 017°23'0 0.0
2018-Aug-19 06:28N 68°26' E 017°23'0 0.0
2018-Aug-19 05:55N 68°26' E 017°23'0 0.0
2018-Aug-19 05:29N 68°26' E 017°23'0 0.0
2018-Aug-19 04:59N 68°26' E 017°23'0 0.0
2018-Aug-19 04:28N 68°26' E 017°23'0 0.0
2018-Aug-19 03:59N 68°26' E 017°23'0 0.0
2018-Aug-19 03:28N 68°26' E 017°23'0 0.0
2018-Aug-19 02:58N 68°26' E 017°23'0 0.0
2018-Aug-19 02:28N 68°26' E 017°23'0 0.0
2018-Aug-19 01:59N 68°26' E 017°23'0 0.0
2018-Aug-19 01:28N 68°26' E 017°23'0 0.0
2018-Aug-19 00:58N 68°26' E 017°23'0 0.0
2018-Aug-19 00:28N 68°26' E 017°23'0 0.0
2018-Aug-18 23:58N 68°26' E 017°23'0 0.0
2018-Aug-18 23:28N 68°26' E 017°23'0 0.0
2018-Aug-18 22:58N 68°26' E 017°23'0 0.0
2018-Aug-18 22:28N 68°26' E 017°23'0 0.0
2018-Aug-18 21:58N 68°26' E 017°23'0 0.0
2018-Aug-18 21:28N 68°26' E 017°23'0 0.0
2018-Aug-18 20:58N 68°26' E 017°23'0 0.0
2018-Aug-18 20:28N 68°26' E 017°23'0 0.0
2018-Aug-18 19:58N 68°26' E 017°23'0 0.0
2018-Aug-18 19:28N 68°26' E 017°23'0 0.0
2018-Aug-18 18:58N 68°26' E 017°23'0 0.0
2018-Aug-18 18:28N 68°26' E 017°23'0 0.0
2018-Aug-18 17:58N 68°26' E 017°23'0 0.0
2018-Aug-18 17:28N 68°26' E 017°23'0 0.0
2018-Aug-18 16:58N 68°26' E 017°23'0 0.0
2018-Aug-18 16:28N 68°26' E 017°23'0 0.0
2018-Aug-18 15:58N 68°26' E 017°23'0 0.0
2018-Aug-18 15:28N 68°26' E 017°23'0 0.0
2018-Aug-18 14:58N 68°26' E 017°23'0 0.0
2018-Aug-18 14:28N 68°26' E 017°23'0 0.0
2018-Aug-18 13:58N 68°26' E 017°23'0 0.0
2018-Aug-18 13:28N 68°26' E 017°23'0 0.0
2018-Aug-18 12:58N 68°26' E 017°23'0 0.0
2018-Aug-18 12:28N 68°26' E 017°23'0 0.0
2018-Aug-18 11:58N 68°26' E 017°23'0 0.0
2018-Aug-18 11:28N 68°26' E 017°23'0 0.0
2018-Aug-18 10:58N 68°26' E 017°23'0 0.0
2018-Aug-18 10:28N 68°26' E 017°23'0 0.0
2018-Aug-18 09:58N 68°26' E 017°23'0 0.0
2018-Aug-18 09:28N 68°26' E 017°23'0 0.0
2018-Aug-18 08:58N 68°26' E 017°23'0 0.0
2018-Aug-18 08:28N 68°26' E 017°23'0 0.0
2018-Aug-18 07:58N 68°26' E 017°23'0 0.0
2018-Aug-18 07:28N 68°26' E 017°23'0 0.0
2018-Aug-18 06:58N 68°26' E 017°23'0 0.0
2018-Aug-18 06:25N 68°26' E 017°23'0 0.0
2018-Aug-18 05:58N 68°26' E 017°23'0 0.0
2018-Aug-18 05:28N 68°26' E 017°23'0 0.0
2018-Aug-18 04:58N 68°26' E 017°23'0 0.0
2018-Aug-18 04:28N 68°26' E 017°23'0 0.0
2018-Aug-18 03:58N 68°26' E 017°23'0 0.0
2018-Aug-18 03:28N 68°26' E 017°23'0 0.0
2018-Aug-18 02:58N 68°26' E 017°23'0 0.0
2018-Aug-18 02:28N 68°26' E 017°23'0 0.0
2018-Aug-18 01:58N 68°26' E 017°23'0 0.0
2018-Aug-18 01:28N 68°26' E 017°23'0 0.0
2018-Aug-18 00:58N 68°26' E 017°23'0 0.0
2018-Aug-18 00:28N 68°26' E 017°23'0 0.0
2018-Aug-17 23:58N 68°26' E 017°23'0 0.0
2018-Aug-17 23:28N 68°26' E 017°23'0 0.0
2018-Aug-17 22:58N 68°26' E 017°23'0 0.0
2018-Aug-17 22:28N 68°26' E 017°23'0 0.0
2018-Aug-17 21:58N 68°26' E 017°23'0 0.0
2018-Aug-17 21:28N 68°26' E 017°23'0 0.0
2018-Aug-17 20:58N 68°26' E 017°23'0 0.0
2018-Aug-17 20:28N 68°26' E 017°23'0 0.0
2018-Aug-17 19:58N 68°26' E 017°23'0 0.0
2018-Aug-17 19:28N 68°26' E 017°23'0 0.0
2018-Aug-17 18:58N 68°26' E 017°23'0 0.0
2018-Aug-17 18:28N 68°26' E 017°23'0 0.0
2018-Aug-17 17:58N 68°26' E 017°23'0 0.0
2018-Aug-17 17:28N 68°26' E 017°23'0 0.0
2018-Aug-17 16:58N 68°26' E 017°23'0 0.0
2018-Aug-17 16:28N 68°26' E 017°23'0 0.0
2018-Aug-17 15:58N 68°26' E 017°23'0 0.0
2018-Aug-17 15:25N 68°26' E 017°23'0 0.0
2018-Aug-17 14:58N 68°26' E 017°23'0 0.0
2018-Aug-17 14:28N 68°26' E 017°23'0 0.0
2018-Aug-17 13:28N 68°26' E 017°23'0 0.0
2018-Aug-17 12:58N 68°26' E 017°23'0 0.0
2018-Aug-17 12:28N 68°26' E 017°23'0 0.0
2018-Aug-17 11:58N 68°26' E 017°23'0 0.0
2018-Aug-17 11:28N 68°26' E 017°23'0 0.0
2018-Aug-17 10:58N 68°26' E 017°23'0 0.0
2018-Aug-17 10:28N 68°26' E 017°23'0 0.0
2018-Aug-17 09:58N 68°26' E 017°23'0 0.0
2018-Aug-17 09:28N 68°26' E 017°23'0 0.0
2018-Aug-17 08:58N 68°26' E 017°23'0 0.0
2018-Aug-17 08:28N 68°26' E 017°23'0 0.0
2018-Aug-17 07:58N 68°26' E 017°23'0 0.0
2018-Aug-17 07:28N 68°26' E 017°23'0 0.0
2018-Aug-17 06:58N 68°26' E 017°23'0 0.0
2018-Aug-17 06:28N 68°26' E 017°23'0 0.0
2018-Aug-17 05:58N 68°26' E 017°23'0 0.0
2018-Aug-17 05:28N 68°26' E 017°23'0 0.0
2018-Aug-17 04:58N 68°26' E 017°23'0 0.0
2018-Aug-17 04:28N 68°26' E 017°23'0 0.0
2018-Aug-17 03:58N 68°26' E 017°23'0 0.0
2018-Aug-17 03:28N 68°26' E 017°23'0 0.0
2018-Aug-17 02:58N 68°26' E 017°23'0 0.0
2018-Aug-17 02:28N 68°26' E 017°23'0 0.0
2018-Aug-17 01:58N 68°26' E 017°23'0 0.0
2018-Aug-17 01:28N 68°26' E 017°23'0 0.0
2018-Aug-17 00:58N 68°26' E 017°23'0 0.7
2018-Aug-17 00:30N 68°26' E 017°22'1 2.0
2018-Aug-17 00:00N 68°26' E 017°20'1 1.8
2018-Aug-16 23:29N 68°26' E 017°17'2 3.8
2018-Aug-16 23:00N 68°25' E 017°12'2 2.9
2018-Aug-16 22:28N 68°24' E 017°09'0 0.0
2018-Aug-16 21:58N 68°24' E 017°09'0 0.0
2018-Aug-16 21:28N 68°24' E 017°09'0 0.0
2018-Aug-16 20:58N 68°24' E 017°09'0 0.0
2018-Aug-16 20:28N 68°24' E 017°09'0 0.1
2018-Aug-16 19:58N 68°24' E 017°09'0 0.0
2018-Aug-16 19:28N 68°24' E 017°09'0 0.0
2018-Aug-16 18:58N 68°24' E 017°09'0 0.0
2018-Aug-16 18:28N 68°24' E 017°09'0 0.0
2018-Aug-16 17:58N 68°24' E 017°09'0 0.0
2018-Aug-16 17:28N 68°24' E 017°09'0 0.0
2018-Aug-16 16:58N 68°24' E 017°09'0 0.0
2018-Aug-16 16:28N 68°24' E 017°09'0 0.0
2018-Aug-16 15:58N 68°24' E 017°09'0 0.1
2018-Aug-16 15:28N 68°24' E 017°09'0 0.1
2018-Aug-16 14:58N 68°24' E 017°09'0 0.1
2018-Aug-16 14:25N 68°24' E 017°09'0 0.0
2018-Aug-16 13:58N 68°24' E 017°09'0 0.0
2018-Aug-16 13:28N 68°24' E 017°09'0 0.1
2018-Aug-16 12:58N 68°24' E 017°09'0 0.1
2018-Aug-16 12:28N 68°24' E 017°09'0 0.1
2018-Aug-16 11:58N 68°24' E 017°09'0 0.0
2018-Aug-16 11:28N 68°24' E 017°09'0 0.0
2018-Aug-16 10:58N 68°24' E 017°09'0 0.0
2018-Aug-16 10:28N 68°24' E 017°09'0 0.1
2018-Aug-16 09:58N 68°24' E 017°09'0 0.1
2018-Aug-16 09:28N 68°24' E 017°09'0 0.0
2018-Aug-16 08:58N 68°24' E 017°09'0 0.0
2018-Aug-16 08:28N 68°24' E 017°09'0 0.0
2018-Aug-16 07:58N 68°24' E 017°09'0 0.0
2018-Aug-16 07:28N 68°24' E 017°09'0 0.0
2018-Aug-16 06:58N 68°24' E 017°09'0 0.0
2018-Aug-16 06:28N 68°24' E 017°09'0 0.0
2018-Aug-16 05:58N 68°24' E 017°09'0 0.0
2018-Aug-16 05:28N 68°24' E 017°09'0 0.0
2018-Aug-16 04:58N 68°24' E 017°09'0 0.1
2018-Aug-16 04:28N 68°24' E 017°09'0 0.0
2018-Aug-16 03:58N 68°24' E 017°09'0 0.0
2018-Aug-16 03:28N 68°24' E 017°09'0 0.0
2018-Aug-16 02:58N 68°24' E 017°09'0 0.1
2018-Aug-16 02:28N 68°24' E 017°09'0 0.0
2018-Aug-16 01:58N 68°24' E 017°09'0 0.1
2018-Aug-16 01:28N 68°24' E 017°09'0 0.1
2018-Aug-16 00:58N 68°24' E 017°09'0 0.3
2018-Aug-16 00:28N 68°24' E 017°10'0 0.1
2018-Aug-15 23:58N 68°24' E 017°10'0 0.2
2018-Aug-15 23:28N 68°24' E 017°09'0 0.2
2018-Aug-15 22:58N 68°24' E 017°09'0 0.0
2018-Aug-15 22:28N 68°24' E 017°09'0 0.0
2018-Aug-15 21:58N 68°24' E 017°09'0 0.0
2018-Aug-15 21:28N 68°24' E 017°09'0 0.0
2018-Aug-15 20:58N 68°24' E 017°09'0 0.0
2018-Aug-15 20:28N 68°24' E 017°09'0 0.0
2018-Aug-15 19:58N 68°24' E 017°09'0 0.0
2018-Aug-15 19:28N 68°24' E 017°09'0 0.0
2018-Aug-15 18:58N 68°24' E 017°09'0 0.0
2018-Aug-15 18:28N 68°24' E 017°09'0 0.0
2018-Aug-15 17:58N 68°24' E 017°09'0 0.0
2018-Aug-15 17:28N 68°24' E 017°09'0 0.0
2018-Aug-15 16:58N 68°24' E 017°09'0 0.0
2018-Aug-15 16:25N 68°24' E 017°09'0 0.0
2018-Aug-15 15:58N 68°24' E 017°09'0 0.0
2018-Aug-15 15:28N 68°24' E 017°09'0 0.0
2018-Aug-15 14:58N 68°24' E 017°09'0 0.0
2018-Aug-15 14:28N 68°24' E 017°09'0 0.0
2018-Aug-15 13:58N 68°24' E 017°09'0 0.0
2018-Aug-15 13:28N 68°24' E 017°09'0 0.0
2018-Aug-15 12:58N 68°24' E 017°09'0 0.1
2018-Aug-15 12:28N 68°24' E 017°09'0 0.0
2018-Aug-15 11:58N 68°24' E 017°09'0 0.0
2018-Aug-15 11:28N 68°24' E 017°09'0 0.0
2018-Aug-15 10:58N 68°24' E 017°09'0 0.0
2018-Aug-15 10:28N 68°24' E 017°09'0 0.0
2018-Aug-15 09:58N 68°24' E 017°09'0 0.0
2018-Aug-15 09:28N 68°24' E 017°09'0 0.1
2018-Aug-15 08:58N 68°24' E 017°09'0 0.1
2018-Aug-15 08:28N 68°24' E 017°09'0 0.1
2018-Aug-15 07:58N 68°24' E 017°09'0 0.0
2018-Aug-15 07:28N 68°24' E 017°09'0 0.0
2018-Aug-15 06:58N 68°24' E 017°09'0 0.0
2018-Aug-15 06:28N 68°24' E 017°09'0 0.0
2018-Aug-15 05:58N 68°24' E 017°09'0 0.0
2018-Aug-15 05:25N 68°24' E 017°09'0 0.0
2018-Aug-15 04:58N 68°24' E 017°09'0 0.0
2018-Aug-15 04:28N 68°24' E 017°09'0 0.0
2018-Aug-15 03:58N 68°24' E 017°09'0 0.0
2018-Aug-15 03:28N 68°24' E 017°09'0 0.0
2018-Aug-15 02:58N 68°24' E 017°09'0 0.0
2018-Aug-15 02:28N 68°24' E 017°09'0 0.0
2018-Aug-15 01:58N 68°24' E 017°09'0 0.0
2018-Aug-15 01:28N 68°24' E 017°09'0 0.0
2018-Aug-15 00:58N 68°24' E 017°09'0 0.0
2018-Aug-15 00:28N 68°24' E 017°09'0 0.1
2018-Aug-14 23:58N 68°24' E 017°09'0 0.0
2018-Aug-14 23:28N 68°24' E 017°09'0 0.0
2018-Aug-14 22:58N 68°24' E 017°09'0 0.0
2018-Aug-14 22:28N 68°24' E 017°09'0 0.0
2018-Aug-14 21:58N 68°24' E 017°09'0 0.0
2018-Aug-14 21:28N 68°24' E 017°09'0 0.0
2018-Aug-14 20:58N 68°24' E 017°09'0 0.0
2018-Aug-14 20:28N 68°24' E 017°09'0 0.0
2018-Aug-14 19:58N 68°24' E 017°09'0 0.0
2018-Aug-14 19:28N 68°24' E 017°09'0 0.0
2018-Aug-14 18:58N 68°24' E 017°09'0 0.0
2018-Aug-14 18:28N 68°24' E 017°09'0 0.0
2018-Aug-14 17:58N 68°24' E 017°09'0 0.0
2018-Aug-14 17:28N 68°24' E 017°09'0 0.0
2018-Aug-14 16:58N 68°24' E 017°09'0 0.0
2018-Aug-14 16:28N 68°24' E 017°09'0 0.0
2018-Aug-14 15:58N 68°24' E 017°09'0 0.1
2018-Aug-14 15:28N 68°24' E 017°09'0 0.0
2018-Aug-14 14:58N 68°24' E 017°09'0 0.1
2018-Aug-14 14:28N 68°24' E 017°10'0 0.1
2018-Aug-14 13:58N 68°24' E 017°10'0 0.2
2018-Aug-14 13:28N 68°24' E 017°10'0 0.1
2018-Aug-14 12:58N 68°24' E 017°10'0 0.1
2018-Aug-14 12:28N 68°24' E 017°10'0 0.0
2018-Aug-14 11:58N 68°24' E 017°10'0 0.0
2018-Aug-14 11:28N 68°24' E 017°10'0 0.0
2018-Aug-14 10:58N 68°24' E 017°10'0 0.1
2018-Aug-14 10:28N 68°24' E 017°10'0 0.1
2018-Aug-14 09:58N 68°24' E 017°10'0 0.1
2018-Aug-14 09:28N 68°24' E 017°10'0 0.0
2018-Aug-14 08:58N 68°24' E 017°10'0 0.0
2018-Aug-14 08:28N 68°24' E 017°10'0 0.1
2018-Aug-14 07:58N 68°24' E 017°10'0 0.1
2018-Aug-14 07:28N 68°24' E 017°10'0 0.0
2018-Aug-14 06:58N 68°24' E 017°10'0 0.0
2018-Aug-14 06:28N 68°24' E 017°10'0 0.0
2018-Aug-14 05:58N 68°24' E 017°10'0 0.0
2018-Aug-14 05:28N 68°24' E 017°10'0 0.0
2018-Aug-14 04:55N 68°24' E 017°10'0 0.0
2018-Aug-14 04:28N 68°24' E 017°10'0 0.0
2018-Aug-14 03:58N 68°24' E 017°10'0 0.0
2018-Aug-14 03:28N 68°24' E 017°10'0 0.0
2018-Aug-14 02:58N 68°24' E 017°10'0 0.0
2018-Aug-14 02:28N 68°24' E 017°10'0 0.0
2018-Aug-14 01:58N 68°24' E 017°10'0 0.1
2018-Aug-14 01:28N 68°24' E 017°10'0 0.1
2018-Aug-14 00:58N 68°24' E 017°10'0 0.1
2018-Aug-14 00:28N 68°24' E 017°10'0 0.1
2018-Aug-13 23:58N 68°24' E 017°10'0 0.1
2018-Aug-13 23:28N 68°24' E 017°10'0 0.1
2018-Aug-13 22:58N 68°24' E 017°10'0 0.0
2018-Aug-13 22:28N 68°24' E 017°10'0 0.0
2018-Aug-13 21:58N 68°24' E 017°10'0 0.0
2018-Aug-13 21:28N 68°24' E 017°10'0 0.0
2018-Aug-13 20:58N 68°24' E 017°10'0 0.1
2018-Aug-13 20:28N 68°24' E 017°10'0 0.1
2018-Aug-13 19:58N 68°24' E 017°10'0 0.0
2018-Aug-13 19:28N 68°24' E 017°10'0 0.0
2018-Aug-13 18:58N 68°24' E 017°10'0 0.1
2018-Aug-13 18:28N 68°24' E 017°10'0 0.0
2018-Aug-13 17:58N 68°24' E 017°10'0 0.1
2018-Aug-13 17:31N 68°24' E 017°10'0 0.1
2018-Aug-13 16:58N 68°24' E 017°10'0 0.0
2018-Aug-13 16:28N 68°24' E 017°10'0 0.0
2018-Aug-13 15:58N 68°24' E 017°10'0 0.2
2018-Aug-13 15:28N 68°24' E 017°10'0 0.2
2018-Aug-13 14:58N 68°24' E 017°10'0 0.1
2018-Aug-13 14:28N 68°24' E 017°10'0 0.0
2018-Aug-13 13:58N 68°24' E 017°10'0 0.1
2018-Aug-13 13:31N 68°24' E 017°10'0 0.1
2018-Aug-13 12:58N 68°24' E 017°10'0 0.0
2018-Aug-13 12:28N 68°24' E 017°10'0 0.0
2018-Aug-13 11:58N 68°24' E 017°10'0 0.1
2018-Aug-13 11:30N 68°24' E 017°10'0 0.0
2018-Aug-13 10:58N 68°24' E 017°10'0 0.0
2018-Aug-13 10:28N 68°24' E 017°10'0 0.0
2018-Aug-13 09:58N 68°24' E 017°10'0 0.0
2018-Aug-13 09:28N 68°24' E 017°10'0 0.0
2018-Aug-13 09:00N 68°24' E 017°10'0 0.0
2018-Aug-13 08:28N 68°24' E 017°10'0 0.0
2018-Aug-13 07:58N 68°24' E 017°10'0 0.0
2018-Aug-13 07:25N 68°24' E 017°10'0 0.0
2018-Aug-13 07:00N 68°24' E 017°10'0 0.0
2018-Aug-13 06:31N 68°24' E 017°10'0 0.0
2018-Aug-13 06:00N 68°24' E 017°10'0 0.0
2018-Aug-13 05:31N 68°24' E 017°10'0 0.1
2018-Aug-13 05:00N 68°24' E 017°10'0 0.0
2018-Aug-13 04:30N 68°24' E 017°10'0 0.0
2018-Aug-13 03:58N 68°24' E 017°10'0 0.1
2018-Aug-13 03:28N 68°24' E 017°10'0 0.0
2018-Aug-13 03:01N 68°24' E 017°10'0 0.0
2018-Aug-13 02:31N 68°24' E 017°10'0 0.0
2018-Aug-13 02:01N 68°24' E 017°10'0 0.0
2018-Aug-13 01:30N 68°24' E 017°10'0 0.0
2018-Aug-13 01:00N 68°24' E 017°10'0 0.0
2018-Aug-13 00:31N 68°24' E 017°10'0 0.0
2018-Aug-13 00:01N 68°24' E 017°10'0 0.0
2018-Aug-12 23:27N 68°24' E 017°10'0 0.0
2018-Aug-12 23:00N 68°24' E 017°10'0 0.1
2018-Aug-12 22:31N 68°24' E 017°10'0 0.0
2018-Aug-12 21:58N 68°24' E 017°10'0 0.0
2018-Aug-12 21:30N 68°24' E 017°10'0 0.0
2018-Aug-12 20:57N 68°24' E 017°10'0 0.1
2018-Aug-12 20:30N 68°24' E 017°10'0 0.0
2018-Aug-12 20:00N 68°24' E 017°10'0 0.1
2018-Aug-12 19:30N 68°24' E 017°10'0 0.0
2018-Aug-12 19:00N 68°24' E 017°10'0 0.0
2018-Aug-12 18:30N 68°24' E 017°10'0 0.0
2018-Aug-12 18:01N 68°24' E 017°10'0 0.1
2018-Aug-12 17:30N 68°24' E 017°10'0 0.0
2018-Aug-12 17:00N 68°24' E 017°10'0 0.0
2018-Aug-12 16:30N 68°24' E 017°10'0 0.1
2018-Aug-12 16:00N 68°24' E 017°10'0 0.0
2018-Aug-12 15:30N 68°24' E 017°10'0 0.0
2018-Aug-12 15:01N 68°24' E 017°10'0 0.1
2018-Aug-12 14:31N 68°24' E 017°10'0 0.0
2018-Aug-12 14:00N 68°24' E 017°10'0 0.0
2018-Aug-12 13:30N 68°24' E 017°10'0 0.0
2018-Aug-12 13:00N 68°24' E 017°10'0 0.0
2018-Aug-12 12:30N 68°24' E 017°10'0 0.0
2018-Aug-12 12:00N 68°24' E 017°10'0 0.0
2018-Aug-12 11:30N 68°24' E 017°10'0 0.0
2018-Aug-12 11:00N 68°24' E 017°10'0 0.0
2018-Aug-12 10:30N 68°24' E 017°10'0 0.0
2018-Aug-12 09:57N 68°24' E 017°10'0 0.0
2018-Aug-12 09:30N 68°24' E 017°10'0 0.0
2018-Aug-12 09:00N 68°24' E 017°10'0 0.0
2018-Aug-12 08:30N 68°24' E 017°10'0 0.1
2018-Aug-12 08:00N 68°24' E 017°10'0 0.0
2018-Aug-12 07:30N 68°24' E 017°10'0 0.0
2018-Aug-12 07:00N 68°24' E 017°10'0 0.0
2018-Aug-12 06:30N 68°24' E 017°10'0 0.1
2018-Aug-12 06:00N 68°24' E 017°10'0 0.0
2018-Aug-12 05:30N 68°24' E 017°10'0 0.0
2018-Aug-12 05:00N 68°24' E 017°10'0 0.0
2018-Aug-12 04:30N 68°24' E 017°10'0 0.0
2018-Aug-12 04:00N 68°24' E 017°10'0 0.0
2018-Aug-12 03:30N 68°24' E 017°10'0 0.0
2018-Aug-12 03:00N 68°24' E 017°10'0 0.1
2018-Aug-12 02:30N 68°24' E 017°10'0 0.1
2018-Aug-12 02:00N 68°24' E 017°10'0 0.0
2018-Aug-12 01:30N 68°24' E 017°10'0 0.0
2018-Aug-12 01:00N 68°24' E 017°10'0 0.1
2018-Aug-12 00:30N 68°24' E 017°10'0 0.1
2018-Aug-12 00:00N 68°24' E 017°10'0 0.0
2018-Aug-11 23:30N 68°24' E 017°10'0 0.0
2018-Aug-11 23:00N 68°24' E 017°10'0 0.0
2018-Aug-11 22:30N 68°24' E 017°10'0 0.0
2018-Aug-11 22:00N 68°24' E 017°10'0 0.0
2018-Aug-11 21:30N 68°24' E 017°10'0 0.0
2018-Aug-11 21:00N 68°24' E 017°10'0 0.0
2018-Aug-11 20:30N 68°24' E 017°10'0 0.1
2018-Aug-11 20:00N 68°24' E 017°10'0 0.5
2018-Aug-11 19:30N 68°24' E 017°10'0 0.4
2018-Aug-11 19:00N 68°24' E 017°09'0 0.2
2018-Aug-11 18:30N 68°24' E 017°09'0 0.0
2018-Aug-11 18:00N 68°24' E 017°09'0 0.0
2018-Aug-11 17:30N 68°24' E 017°09'0 0.1
2018-Aug-11 17:00N 68°24' E 017°09'0 0.0
2018-Aug-11 16:30N 68°24' E 017°09'0 0.0
2018-Aug-11 16:00N 68°24' E 017°09'0 0.0
2018-Aug-11 15:30N 68°24' E 017°09'0 0.1
2018-Aug-11 15:00N 68°24' E 017°09'1 2.3
2018-Aug-11 14:29N 68°25' E 017°06'4 9.0
2018-Aug-11 13:59N 68°25' E 016°54'612.3
2018-Aug-11 13:30N 68°26' E 016°38'612.5
2018-Aug-11 13:00N 68°24' E 016°21'612.4
2018-Aug-11 12:30N 68°22' E 016°06'612.7
2018-Aug-11 12:00N 68°18' E 015°52'612.4
2018-Aug-11 11:30N 68°14' E 015°40'510.3
2018-Aug-11 11:00N 68°12' E 015°27'4 8.4
2018-Aug-11 10:29N 68°10' E 015°16'4 7.9
2018-Aug-11 09:59N 68°09' E 015°07'611.8
2018-Aug-11 09:30N 68°05' E 014°56'611.8
2018-Aug-11 08:58N 68°00' E 014°43'611.7
2018-Aug-11 08:28N 67°56' E 014°32'511.8
2018-Aug-11 08:00N 67°53' E 014°21'611.8
2018-Aug-11 07:29N 67°48' E 014°09'611.8
2018-Aug-11 07:00N 67°45' E 013°58'611.5
2018-Aug-11 06:30N 67°41' E 013°46'510.9
2018-Aug-11 06:00N 67°38' E 013°35'510.8
2018-Aug-11 05:30N 67°34' E 013°25'510.8
2018-Aug-11 05:00N 67°30' E 013°14'510.8
2018-Aug-11 04:30N 67°26' E 013°05'  
Track history (hours):
 
Tides and Currents Weather Stations Pressure Air Temp Water Temp Dewpoint Dewpoint Depression Visibility Wind Speed Wind Dir Waves Ship Positions

Aboy Karlie

Last reported at 2018-Aug-19 22:30 UTC. Time now 2018-Aug-19 22:53 UTC.
Position N 67°28' E 013°16'.

Length 300 m; draft 18.6 m.

Type: Cargo ship. MMSI: 249400000.

Date/timePositionNaut miles runAvg speedWind from/ knotsBaromVisibWave heightAir tempDewpointWater temp
2018-Aug-19 22:30N 67°28' E 013°16'4 8.3
2018-Aug-19 22:00N 67°31' E 013°23'4 8.4
2018-Aug-19 21:30N 67°34' E 013°31'4 8.7
2018-Aug-19 21:00N 67°37' E 013°39'4 8.7
2018-Aug-19 20:30N 67°40' E 013°47'4 8.5
2018-Aug-19 20:00N 67°43' E 013°55'4 8.4
2018-Aug-19 19:30N 67°46' E 014°02'4 8.4
2018-Aug-19 18:59N 67°50' E 014°10'4 8.4
2018-Aug-19 18:29N 67°53' E 014°17'4 8.4
2018-Aug-19 18:00N 67°56' E 014°25'5 8.9
2018-Aug-19 17:30N 67°59' E 014°34'4 8.8
2018-Aug-19 17:00N 68°01' E 014°43'4 8.4
2018-Aug-19 16:29N 68°04' E 014°52'4 8.6
2018-Aug-19 16:00N 68°07' E 015°01'4 9.0
2018-Aug-19 15:30N 68°10' E 015°10'4 8.9
2018-Aug-19 15:00N 68°12' E 015°20'5 9.1
2018-Aug-19 14:30N 68°13' E 015°32'4 8.7
2018-Aug-19 14:00N 68°15' E 015°43'5 9.2
2018-Aug-19 13:30N 68°18' E 015°52'5 9.0
2018-Aug-19 13:00N 68°21' E 016°00'4 8.1
2018-Aug-19 12:30N 68°23' E 016°10'510.1
2018-Aug-19 12:00N 68°24' E 016°23'510.4
2018-Aug-19 11:30N 68°26' E 016°37'611.3
2018-Aug-19 10:59N 68°26' E 016°52'611.6
2018-Aug-19 10:30N 68°26' E 017°08'5 9.6
2018-Aug-19 10:00N 68°26' E 017°21'1 1.9
2018-Aug-19 09:29N 68°26' E 017°23'0 0.0
2018-Aug-19 08:58N 68°26' E 017°23'0 0.0
2018-Aug-19 08:29N 68°26' E 017°23'0 0.0
2018-Aug-19 07:59N 68°26' E 017°23'0 0.0
2018-Aug-19 07:28N 68°26' E 017°23'0 0.0
2018-Aug-19 06:58N 68°26' E 017°23'0 0.0
2018-Aug-19 06:28N 68°26' E 017°23'0 0.0
2018-Aug-19 05:55N 68°26' E 017°23'0 0.0
2018-Aug-19 05:29N 68°26' E 017°23'0 0.0
2018-Aug-19 04:59N 68°26' E 017°23'0 0.0
2018-Aug-19 04:28N 68°26' E 017°23'0 0.0
2018-Aug-19 03:59N 68°26' E 017°23'0 0.0
2018-Aug-19 03:28N 68°26' E 017°23'0 0.0
2018-Aug-19 02:58N 68°26' E 017°23'0 0.0
2018-Aug-19 02:28N 68°26' E 017°23'0 0.0
2018-Aug-19 01:59N 68°26' E 017°23'0 0.0
2018-Aug-19 01:28N 68°26' E 017°23'0 0.0
2018-Aug-19 00:58N 68°26' E 017°23'0 0.0
2018-Aug-19 00:28N 68°26' E 017°23'0 0.0
2018-Aug-18 23:58N 68°26' E 017°23'0 0.0
2018-Aug-18 23:28N 68°26' E 017°23'0 0.0
2018-Aug-18 22:58N 68°26' E 017°23'0 0.0
2018-Aug-18 22:28N 68°26' E 017°23'0 0.0
2018-Aug-18 21:58N 68°26' E 017°23'0 0.0
2018-Aug-18 21:28N 68°26' E 017°23'0 0.0
2018-Aug-18 20:58N 68°26' E 017°23'0 0.0
2018-Aug-18 20:28N 68°26' E 017°23'0 0.0
2018-Aug-18 19:58N 68°26' E 017°23'0 0.0
2018-Aug-18 19:28N 68°26' E 017°23'0 0.0
2018-Aug-18 18:58N 68°26' E 017°23'0 0.0
2018-Aug-18 18:28N 68°26' E 017°23'0 0.0
2018-Aug-18 17:58N 68°26' E 017°23'0 0.0
2018-Aug-18 17:28N 68°26' E 017°23'0 0.0
2018-Aug-18 16:58N 68°26' E 017°23'0 0.0
2018-Aug-18 16:28N 68°26' E 017°23'0 0.0
2018-Aug-18 15:58N 68°26' E 017°23'0 0.0
2018-Aug-18 15:28N 68°26' E 017°23'0 0.0
2018-Aug-18 14:58N 68°26' E 017°23'0 0.0
2018-Aug-18 14:28N 68°26' E 017°23'0 0.0
2018-Aug-18 13:58N 68°26' E 017°23'0 0.0
2018-Aug-18 13:28N 68°26' E 017°23'0 0.0
2018-Aug-18 12:58N 68°26' E 017°23'0 0.0
2018-Aug-18 12:28N 68°26' E 017°23'0 0.0
2018-Aug-18 11:58N 68°26' E 017°23'0 0.0
2018-Aug-18 11:28N 68°26' E 017°23'0 0.0
2018-Aug-18 10:58N 68°26' E 017°23'0 0.0
2018-Aug-18 10:28N 68°26' E 017°23'0 0.0
2018-Aug-18 09:58N 68°26' E 017°23'0 0.0
2018-Aug-18 09:28N 68°26' E 017°23'0 0.0
2018-Aug-18 08:58N 68°26' E 017°23'0 0.0
2018-Aug-18 08:28N 68°26' E 017°23'0 0.0
2018-Aug-18 07:58N 68°26' E 017°23'0 0.0
2018-Aug-18 07:28N 68°26' E 017°23'0 0.0
2018-Aug-18 06:58N 68°26' E 017°23'0 0.0
2018-Aug-18 06:25N 68°26' E 017°23'0 0.0
2018-Aug-18 05:58N 68°26' E 017°23'0 0.0
2018-Aug-18 05:28N 68°26' E 017°23'0 0.0
2018-Aug-18 04:58N 68°26' E 017°23'0 0.0
2018-Aug-18 04:28N 68°26' E 017°23'0 0.0
2018-Aug-18 03:58N 68°26' E 017°23'0 0.0
2018-Aug-18 03:28N 68°26' E 017°23'0 0.0
2018-Aug-18 02:58N 68°26' E 017°23'0 0.0
2018-Aug-18 02:28N 68°26' E 017°23'0 0.0
2018-Aug-18 01:58N 68°26' E 017°23'0 0.0
2018-Aug-18 01:28N 68°26' E 017°23'0 0.0
2018-Aug-18 00:58N 68°26' E 017°23'0 0.0
2018-Aug-18 00:28N 68°26' E 017°23'0 0.0
2018-Aug-17 23:58N 68°26' E 017°23'0 0.0
2018-Aug-17 23:28N 68°26' E 017°23'0 0.0
2018-Aug-17 22:58N 68°26' E 017°23'0 0.0
2018-Aug-17 22:28N 68°26' E 017°23'0 0.0
2018-Aug-17 21:58N 68°26' E 017°23'0 0.0
2018-Aug-17 21:28N 68°26' E 017°23'0 0.0
2018-Aug-17 20:58N 68°26' E 017°23'0 0.0
2018-Aug-17 20:28N 68°26' E 017°23'0 0.0
2018-Aug-17 19:58N 68°26' E 017°23'0 0.0
2018-Aug-17 19:28N 68°26' E 017°23'0 0.0
2018-Aug-17 18:58N 68°26' E 017°23'0 0.0
2018-Aug-17 18:28N 68°26' E 017°23'0 0.0
2018-Aug-17 17:58N 68°26' E 017°23'0 0.0
2018-Aug-17 17:28N 68°26' E 017°23'0 0.0
2018-Aug-17 16:58N 68°26' E 017°23'0 0.0
2018-Aug-17 16:28N 68°26' E 017°23'0 0.0
2018-Aug-17 15:58N 68°26' E 017°23'0 0.0
2018-Aug-17 15:25N 68°26' E 017°23'0 0.0
2018-Aug-17 14:58N 68°26' E 017°23'0 0.0
2018-Aug-17 14:28N 68°26' E 017°23'0 0.0
2018-Aug-17 13:28N 68°26' E 017°23'0 0.0
2018-Aug-17 12:58N 68°26' E 017°23'0 0.0
2018-Aug-17 12:28N 68°26' E 017°23'0 0.0
2018-Aug-17 11:58N 68°26' E 017°23'0 0.0
2018-Aug-17 11:28N 68°26' E 017°23'0 0.0
2018-Aug-17 10:58N 68°26' E 017°23'0 0.0
2018-Aug-17 10:28N 68°26' E 017°23'0 0.0
2018-Aug-17 09:58N 68°26' E 017°23'0 0.0
2018-Aug-17 09:28N 68°26' E 017°23'0 0.0
2018-Aug-17 08:58N 68°26' E 017°23'0 0.0
2018-Aug-17 08:28N 68°26' E 017°23'0 0.0
2018-Aug-17 07:58N 68°26' E 017°23'0 0.0
2018-Aug-17 07:28N 68°26' E 017°23'0 0.0
2018-Aug-17 06:58N 68°26' E 017°23'0 0.0
2018-Aug-17 06:28N 68°26' E 017°23'0 0.0
2018-Aug-17 05:58N 68°26' E 017°23'0 0.0
2018-Aug-17 05:28N 68°26' E 017°23'0 0.0
2018-Aug-17 04:58N 68°26' E 017°23'0 0.0
2018-Aug-17 04:28N 68°26' E 017°23'0 0.0
2018-Aug-17 03:58N 68°26' E 017°23'0 0.0
2018-Aug-17 03:28N 68°26' E 017°23'0 0.0
2018-Aug-17 02:58N 68°26' E 017°23'0 0.0
2018-Aug-17 02:28N 68°26' E 017°23'0 0.0
2018-Aug-17 01:58N 68°26' E 017°23'0 0.0
2018-Aug-17 01:28N 68°26' E 017°23'0 0.0
2018-Aug-17 00:58N 68°26' E 017°23'0 0.7
2018-Aug-17 00:30N 68°26' E 017°22'1 2.0
2018-Aug-17 00:00N 68°26' E 017°20'1 1.8
2018-Aug-16 23:29N 68°26' E 017°17'2 3.8
2018-Aug-16 23:00N 68°25' E 017°12'2 2.9
2018-Aug-16 22:28N 68°24' E 017°09'0 0.0
2018-Aug-16 21:58N 68°24' E 017°09'0 0.0
2018-Aug-16 21:28N 68°24' E 017°09'0 0.0
2018-Aug-16 20:58N 68°24' E 017°09'0 0.0
2018-Aug-16 20:28N 68°24' E 017°09'0 0.1
2018-Aug-16 19:58N 68°24' E 017°09'0 0.0
2018-Aug-16 19:28N 68°24' E 017°09'0 0.0
2018-Aug-16 18:58N 68°24' E 017°09'0 0.0
2018-Aug-16 18:28N 68°24' E 017°09'0 0.0
2018-Aug-16 17:58N 68°24' E 017°09'0 0.0
2018-Aug-16 17:28N 68°24' E 017°09'0 0.0
2018-Aug-16 16:58N 68°24' E 017°09'0 0.0
2018-Aug-16 16:28N 68°24' E 017°09'0 0.0
2018-Aug-16 15:58N 68°24' E 017°09'0 0.1
2018-Aug-16 15:28N 68°24' E 017°09'0 0.1
2018-Aug-16 14:58N 68°24' E 017°09'0 0.1
2018-Aug-16 14:25N 68°24' E 017°09'0 0.0
2018-Aug-16 13:58N 68°24' E 017°09'0 0.0
2018-Aug-16 13:28N 68°24' E 017°09'0 0.1
2018-Aug-16 12:58N 68°24' E 017°09'0 0.1
2018-Aug-16 12:28N 68°24' E 017°09'0 0.1
2018-Aug-16 11:58N 68°24' E 017°09'0 0.0
2018-Aug-16 11:28N 68°24' E 017°09'0 0.0
2018-Aug-16 10:58N 68°24' E 017°09'0 0.0
2018-Aug-16 10:28N 68°24' E 017°09'0 0.1
2018-Aug-16 09:58N 68°24' E 017°09'0 0.1
2018-Aug-16 09:28N 68°24' E 017°09'0 0.0
2018-Aug-16 08:58N 68°24' E 017°09'0 0.0
2018-Aug-16 08:28N 68°24' E 017°09'0 0.0
2018-Aug-16 07:58N 68°24' E 017°09'0 0.0
2018-Aug-16 07:28N 68°24' E 017°09'0 0.0
2018-Aug-16 06:58N 68°24' E 017°09'0 0.0
2018-Aug-16 06:28N 68°24' E 017°09'0 0.0
2018-Aug-16 05:58N 68°24' E 017°09'0 0.0
2018-Aug-16 05:28N 68°24' E 017°09'0 0.0
2018-Aug-16 04:58N 68°24' E 017°09'0 0.1
2018-Aug-16 04:28N 68°24' E 017°09'0 0.0
2018-Aug-16 03:58N 68°24' E 017°09'0 0.0
2018-Aug-16 03:28N 68°24' E 017°09'0 0.0
2018-Aug-16 02:58N 68°24' E 017°09'0 0.1
2018-Aug-16 02:28N 68°24' E 017°09'0 0.0
2018-Aug-16 01:58N 68°24' E 017°09'0 0.1
2018-Aug-16 01:28N 68°24' E 017°09'0 0.1
2018-Aug-16 00:58N 68°24' E 017°09'0 0.3
2018-Aug-16 00:28N 68°24' E 017°10'0 0.1
2018-Aug-15 23:58N 68°24' E 017°10'0 0.2
2018-Aug-15 23:28N 68°24' E 017°09'0 0.2
2018-Aug-15 22:58N 68°24' E 017°09'0 0.0
2018-Aug-15 22:28N 68°24' E 017°09'0 0.0
2018-Aug-15 21:58N 68°24' E 017°09'0 0.0
2018-Aug-15 21:28N 68°24' E 017°09'0 0.0
2018-Aug-15 20:58N 68°24' E 017°09'0 0.0
2018-Aug-15 20:28N 68°24' E 017°09'0 0.0
2018-Aug-15 19:58N 68°24' E 017°09'0 0.0
2018-Aug-15 19:28N 68°24' E 017°09'0 0.0
2018-Aug-15 18:58N 68°24' E 017°09'0 0.0
2018-Aug-15 18:28N 68°24' E 017°09'0 0.0
2018-Aug-15 17:58N 68°24' E 017°09'0 0.0
2018-Aug-15 17:28N 68°24' E 017°09'0 0.0
2018-Aug-15 16:58N 68°24' E 017°09'0 0.0
2018-Aug-15 16:25N 68°24' E 017°09'0 0.0
2018-Aug-15 15:58N 68°24' E 017°09'0 0.0
2018-Aug-15 15:28N 68°24' E 017°09'0 0.0
2018-Aug-15 14:58N 68°24' E 017°09'0 0.0
2018-Aug-15 14:28N 68°24' E 017°09'0 0.0
2018-Aug-15 13:58N 68°24' E 017°09'0 0.0
2018-Aug-15 13:28N 68°24' E 017°09'0 0.0
2018-Aug-15 12:58N 68°24' E 017°09'0 0.1
2018-Aug-15 12:28N 68°24' E 017°09'0 0.0
2018-Aug-15 11:58N 68°24' E 017°09'0 0.0
2018-Aug-15 11:28N 68°24' E 017°09'0 0.0
2018-Aug-15 10:58N 68°24' E 017°09'0 0.0
2018-Aug-15 10:28N 68°24' E 017°09'0 0.0
2018-Aug-15 09:58N 68°24' E 017°09'0 0.0
2018-Aug-15 09:28N 68°24' E 017°09'0 0.1
2018-Aug-15 08:58N 68°24' E 017°09'0 0.1
2018-Aug-15 08:28N 68°24' E 017°09'0 0.1
2018-Aug-15 07:58N 68°24' E 017°09'0 0.0
2018-Aug-15 07:28N 68°24' E 017°09'0 0.0
2018-Aug-15 06:58N 68°24' E 017°09'0 0.0
2018-Aug-15 06:28N 68°24' E 017°09'0 0.0
2018-Aug-15 05:58N 68°24' E 017°09'0 0.0
2018-Aug-15 05:25N 68°24' E 017°09'0 0.0
2018-Aug-15 04:58N 68°24' E 017°09'0 0.0
2018-Aug-15 04:28N 68°24' E 017°09'0 0.0
2018-Aug-15 03:58N 68°24' E 017°09'0 0.0
2018-Aug-15 03:28N 68°24' E 017°09'0 0.0
2018-Aug-15 02:58N 68°24' E 017°09'0 0.0
2018-Aug-15 02:28N 68°24' E 017°09'0 0.0
2018-Aug-15 01:58N 68°24' E 017°09'0 0.0
2018-Aug-15 01:28N 68°24' E 017°09'0 0.0
2018-Aug-15 00:58N 68°24' E 017°09'0 0.0
2018-Aug-15 00:28N 68°24' E 017°09'0 0.1
2018-Aug-14 23:58N 68°24' E 017°09'0 0.0
2018-Aug-14 23:28N 68°24' E 017°09'0 0.0
2018-Aug-14 22:58N 68°24' E 017°09'0 0.0
2018-Aug-14 22:28N 68°24' E 017°09'0 0.0
2018-Aug-14 21:58N 68°24' E 017°09'0 0.0
2018-Aug-14 21:28N 68°24' E 017°09'0 0.0
2018-Aug-14 20:58N 68°24' E 017°09'0 0.0
2018-Aug-14 20:28N 68°24' E 017°09'0 0.0
2018-Aug-14 19:58N 68°24' E 017°09'0 0.0
2018-Aug-14 19:28N 68°24' E 017°09'0 0.0
2018-Aug-14 18:58N 68°24' E 017°09'0 0.0
2018-Aug-14 18:28N 68°24' E 017°09'0 0.0
2018-Aug-14 17:58N 68°24' E 017°09'0 0.0
2018-Aug-14 17:28N 68°24' E 017°09'0 0.0
2018-Aug-14 16:58N 68°24' E 017°09'0 0.0
2018-Aug-14 16:28N 68°24' E 017°09'0 0.0
2018-Aug-14 15:58N 68°24' E 017°09'0 0.1
2018-Aug-14 15:28N 68°24' E 017°09'0 0.0
2018-Aug-14 14:58N 68°24' E 017°09'0 0.1
2018-Aug-14 14:28N 68°24' E 017°10'0 0.1
2018-Aug-14 13:58N 68°24' E 017°10'0 0.2
2018-Aug-14 13:28N 68°24' E 017°10'0 0.1
2018-Aug-14 12:58N 68°24' E 017°10'0 0.1
2018-Aug-14 12:28N 68°24' E 017°10'0 0.0
2018-Aug-14 11:58N 68°24' E 017°10'0 0.0
2018-Aug-14 11:28N 68°24' E 017°10'0 0.0
2018-Aug-14 10:58N 68°24' E 017°10'0 0.1
2018-Aug-14 10:28N 68°24' E 017°10'0 0.1
2018-Aug-14 09:58N 68°24' E 017°10'0 0.1
2018-Aug-14 09:28N 68°24' E 017°10'0 0.0
2018-Aug-14 08:58N 68°24' E 017°10'0 0.0
2018-Aug-14 08:28N 68°24' E 017°10'0 0.1
2018-Aug-14 07:58N 68°24' E 017°10'0 0.1
2018-Aug-14 07:28N 68°24' E 017°10'0 0.0
2018-Aug-14 06:58N 68°24' E 017°10'0 0.0
2018-Aug-14 06:28N 68°24' E 017°10'0 0.0
2018-Aug-14 05:58N 68°24' E 017°10'0 0.0
2018-Aug-14 05:28N 68°24' E 017°10'0 0.0
2018-Aug-14 04:55N 68°24' E 017°10'0 0.0
2018-Aug-14 04:28N 68°24' E 017°10'0 0.0
2018-Aug-14 03:58N 68°24' E 017°10'0 0.0
2018-Aug-14 03:28N 68°24' E 017°10'0 0.0
2018-Aug-14 02:58N 68°24' E 017°10'0 0.0
2018-Aug-14 02:28N 68°24' E 017°10'0 0.0
2018-Aug-14 01:58N 68°24' E 017°10'0 0.1
2018-Aug-14 01:28N 68°24' E 017°10'0 0.1
2018-Aug-14 00:58N 68°24' E 017°10'0 0.1
2018-Aug-14 00:28N 68°24' E 017°10'0 0.1
2018-Aug-13 23:58N 68°24' E 017°10'0 0.1
2018-Aug-13 23:28N 68°24' E 017°10'0 0.1
2018-Aug-13 22:58N 68°24' E 017°10'0 0.0
2018-Aug-13 22:28N 68°24' E 017°10'0 0.0
2018-Aug-13 21:58N 68°24' E 017°10'0 0.0
2018-Aug-13 21:28N 68°24' E 017°10'0 0.0
2018-Aug-13 20:58N 68°24' E 017°10'0 0.1
2018-Aug-13 20:28N 68°24' E 017°10'0 0.1
2018-Aug-13 19:58N 68°24' E 017°10'0 0.0
2018-Aug-13 19:28N 68°24' E 017°10'0 0.0
2018-Aug-13 18:58N 68°24' E 017°10'0 0.1
2018-Aug-13 18:28N 68°24' E 017°10'0 0.0
2018-Aug-13 17:58N 68°24' E 017°10'0 0.1
2018-Aug-13 17:31N 68°24' E 017°10'0 0.1
2018-Aug-13 16:58N 68°24' E 017°10'0 0.0
2018-Aug-13 16:28N 68°24' E 017°10'0 0.0
2018-Aug-13 15:58N 68°24' E 017°10'0 0.2
2018-Aug-13 15:28N 68°24' E 017°10'0 0.2
2018-Aug-13 14:58N 68°24' E 017°10'0 0.1
2018-Aug-13 14:28N 68°24' E 017°10'0 0.0
2018-Aug-13 13:58N 68°24' E 017°10'0 0.1
2018-Aug-13 13:31N 68°24' E 017°10'0 0.1
2018-Aug-13 12:58N 68°24' E 017°10'0 0.0
2018-Aug-13 12:28N 68°24' E 017°10'0 0.0
2018-Aug-13 11:58N 68°24' E 017°10'0 0.1
2018-Aug-13 11:30N 68°24' E 017°10'0 0.0
2018-Aug-13 10:58N 68°24' E 017°10'0 0.0
2018-Aug-13 10:28N 68°24' E 017°10'0 0.0
2018-Aug-13 09:58N 68°24' E 017°10'0 0.0
2018-Aug-13 09:28N 68°24' E 017°10'0 0.0
2018-Aug-13 09:00N 68°24' E 017°10'0 0.0
2018-Aug-13 08:28N 68°24' E 017°10'0 0.0
2018-Aug-13 07:58N 68°24' E 017°10'0 0.0
2018-Aug-13 07:25N 68°24' E 017°10'0 0.0
2018-Aug-13 07:00N 68°24' E 017°10'0 0.0
2018-Aug-13 06:31N 68°24' E 017°10'0 0.0
2018-Aug-13 06:00N 68°24' E 017°10'0 0.0
2018-Aug-13 05:31N 68°24' E 017°10'0 0.1
2018-Aug-13 05:00N 68°24' E 017°10'0 0.0
2018-Aug-13 04:30N 68°24' E 017°10'0 0.0
2018-Aug-13 03:58N 68°24' E 017°10'0 0.1
2018-Aug-13 03:28N 68°24' E 017°10'0 0.0
2018-Aug-13 03:01N 68°24' E 017°10'0 0.0
2018-Aug-13 02:31N 68°24' E 017°10'0 0.0
2018-Aug-13 02:01N 68°24' E 017°10'0 0.0
2018-Aug-13 01:30N 68°24' E 017°10'0 0.0
2018-Aug-13 01:00N 68°24' E 017°10'0 0.0
2018-Aug-13 00:31N 68°24' E 017°10'0 0.0
2018-Aug-13 00:01N 68°24' E 017°10'0 0.0
2018-Aug-12 23:27N 68°24' E 017°10'0 0.0
2018-Aug-12 23:00N 68°24' E 017°10'0 0.1
2018-Aug-12 22:31N 68°24' E 017°10'0 0.0
2018-Aug-12 21:58N 68°24' E 017°10'0 0.0
2018-Aug-12 21:30N 68°24' E 017°10'0 0.0
2018-Aug-12 20:57N 68°24' E 017°10'0 0.1
2018-Aug-12 20:30N 68°24' E 017°10'0 0.0
2018-Aug-12 20:00N 68°24' E 017°10'0 0.1
2018-Aug-12 19:30N 68°24' E 017°10'0 0.0
2018-Aug-12 19:00N 68°24' E 017°10'0 0.0
2018-Aug-12 18:30N 68°24' E 017°10'0 0.0
2018-Aug-12 18:01N 68°24' E 017°10'0 0.1
2018-Aug-12 17:30N 68°24' E 017°10'0 0.0
2018-Aug-12 17:00N 68°24' E 017°10'0 0.0
2018-Aug-12 16:30N 68°24' E 017°10'0 0.1
2018-Aug-12 16:00N 68°24' E 017°10'0 0.0
2018-Aug-12 15:30N 68°24' E 017°10'0 0.0
2018-Aug-12 15:01N 68°24' E 017°10'0 0.1
2018-Aug-12 14:31N 68°24' E 017°10'0 0.0
2018-Aug-12 14:00N 68°24' E 017°10'0 0.0
2018-Aug-12 13:30N 68°24' E 017°10'0 0.0
2018-Aug-12 13:00N 68°24' E 017°10'0 0.0
2018-Aug-12 12:30N 68°24' E 017°10'0 0.0
2018-Aug-12 12:00N 68°24' E 017°10'0 0.0
2018-Aug-12 11:30N 68°24' E 017°10'0 0.0
2018-Aug-12 11:00N 68°24' E 017°10'0 0.0
2018-Aug-12 10:30N 68°24' E 017°10'0 0.0
2018-Aug-12 09:57N 68°24' E 017°10'0 0.0
2018-Aug-12 09:30N 68°24' E 017°10'0 0.0
2018-Aug-12 09:00N 68°24' E 017°10'0 0.0
2018-Aug-12 08:30N 68°24' E 017°10'0 0.1
2018-Aug-12 08:00N 68°24' E 017°10'0 0.0
2018-Aug-12 07:30N 68°24' E 017°10'0 0.0
2018-Aug-12 07:00N 68°24' E 017°10'0 0.0
2018-Aug-12 06:30N 68°24' E 017°10'0 0.1
2018-Aug-12 06:00N 68°24' E 017°10'0 0.0
2018-Aug-12 05:30N 68°24' E 017°10'0 0.0
2018-Aug-12 05:00N 68°24' E 017°10'0 0.0
2018-Aug-12 04:30N 68°24' E 017°10'0 0.0
2018-Aug-12 04:00N 68°24' E 017°10'0 0.0
2018-Aug-12 03:30N 68°24' E 017°10'0 0.0
2018-Aug-12 03:00N 68°24' E 017°10'0 0.1
2018-Aug-12 02:30N 68°24' E 017°10'0 0.1
2018-Aug-12 02:00N 68°24' E 017°10'0 0.0
2018-Aug-12 01:30N 68°24' E 017°10'0 0.0
2018-Aug-12 01:00N 68°24' E 017°10'0 0.1
2018-Aug-12 00:30N 68°24' E 017°10'0 0.1
2018-Aug-12 00:00N 68°24' E 017°10'0 0.0
2018-Aug-11 23:30N 68°24' E 017°10'0 0.0
2018-Aug-11 23:00N 68°24' E 017°10'0 0.0
2018-Aug-11 22:30N 68°24' E 017°10'0 0.0
2018-Aug-11 22:00N 68°24' E 017°10'0 0.0
2018-Aug-11 21:30N 68°24' E 017°10'0 0.0
2018-Aug-11 21:00N 68°24' E 017°10'0 0.0
2018-Aug-11 20:30N 68°24' E 017°10'0 0.1
2018-Aug-11 20:00N 68°24' E 017°10'0 0.5
2018-Aug-11 19:30N 68°24' E 017°10'0 0.4
2018-Aug-11 19:00N 68°24' E 017°09'0 0.2
2018-Aug-11 18:30N 68°24' E 017°09'0 0.0
2018-Aug-11 18:00N 68°24' E 017°09'0 0.0
2018-Aug-11 17:30N 68°24' E 017°09'0 0.1
2018-Aug-11 17:00N 68°24' E 017°09'0 0.0
2018-Aug-11 16:30N 68°24' E 017°09'0 0.0
2018-Aug-11 16:00N 68°24' E 017°09'0 0.0
2018-Aug-11 15:30N 68°24' E 017°09'0 0.1
2018-Aug-11 15:00N 68°24' E 017°09'1 2.3
2018-Aug-11 14:29N 68°25' E 017°06'4 9.0
2018-Aug-11 13:59N 68°25' E 016°54'612.3
2018-Aug-11 13:30N 68°26' E 016°38'612.5
2018-Aug-11 13:00N 68°24' E 016°21'612.4
2018-Aug-11 12:30N 68°22' E 016°06'612.7
2018-Aug-11 12:00N 68°18' E 015°52'612.4
2018-Aug-11 11:30N 68°14' E 015°40'510.3
2018-Aug-11 11:00N 68°12' E 015°27'4 8.4
2018-Aug-11 10:29N 68°10' E 015°16'4 7.9
2018-Aug-11 09:59N 68°09' E 015°07'611.8
2018-Aug-11 09:30N 68°05' E 014°56'611.8
2018-Aug-11 08:58N 68°00' E 014°43'611.7
2018-Aug-11 08:28N 67°56' E 014°32'511.8
2018-Aug-11 08:00N 67°53' E 014°21'611.8
2018-Aug-11 07:29N 67°48' E 014°09'611.8
2018-Aug-11 07:00N 67°45' E 013°58'611.5
2018-Aug-11 06:30N 67°41' E 013°46'510.9
2018-Aug-11 06:00N 67°38' E 013°35'510.8
2018-Aug-11 05:30N 67°34' E 013°25'510.8
2018-Aug-11 05:00N 67°30' E 013°14'510.8
2018-Aug-11 04:30N 67°26' E 013°05'  

Dump ship's entire track history